createdAt,value
2017-12-08T00:00:28.720Z,998.68
2017-12-08T00:01:28.701Z,998.67
2017-12-08T00:02:28.681Z,998.71
2017-12-08T00:03:28.662Z,998.70
2017-12-08T00:04:28.640Z,998.79
2017-12-08T00:05:28.670Z,998.71
2017-12-08T00:06:28.601Z,998.71
2017-12-08T00:07:28.627Z,998.77
2017-12-08T00:08:28.561Z,998.73
2017-12-08T00:09:28.589Z,998.73
2017-12-08T00:10:28.512Z,998.68
2017-12-08T00:11:28.599Z,998.72
2017-12-08T00:12:28.480Z,998.72
2017-12-08T00:13:28.520Z,998.70
2017-12-08T00:14:28.432Z,998.74
2017-12-08T00:15:28.417Z,998.70
2017-12-08T00:16:28.389Z,998.72
2017-12-08T00:17:28.469Z,998.70
2017-12-08T00:18:28.352Z,998.72
2017-12-08T00:19:28.374Z,998.70
2017-12-08T00:20:28.314Z,998.67
2017-12-08T00:21:28.342Z,998.64
2017-12-08T00:22:28.270Z,998.66
2017-12-08T00:23:28.355Z,998.65
2017-12-08T00:24:28.230Z,998.72
2017-12-08T00:25:28.310Z,998.63
2017-12-08T00:26:28.189Z,998.64
2017-12-08T00:27:28.170Z,998.65
2017-12-08T00:28:28.146Z,998.68
2017-12-08T00:29:28.229Z,998.68
2017-12-08T00:30:28.105Z,998.66
2017-12-08T00:31:28.189Z,998.69
2017-12-08T00:32:28.069Z,998.67
2017-12-08T00:33:28.050Z,998.71
2017-12-08T00:34:28.022Z,998.72
2017-12-08T00:35:28.007Z,998.72
2017-12-08T00:36:27.987Z,998.64
2017-12-08T00:37:27.970Z,998.67
2017-12-08T00:38:27.940Z,998.66
2017-12-08T00:39:27.921Z,998.67
2017-12-08T00:40:27.900Z,998.61
2017-12-08T00:41:27.979Z,998.63
2017-12-08T00:42:27.860Z,998.62
2017-12-08T00:43:27.835Z,998.62
2017-12-08T00:44:27.818Z,998.59
2017-12-08T00:45:27.802Z,998.57
2017-12-08T00:46:27.772Z,998.59
2017-12-08T00:47:27.756Z,998.57
2017-12-08T00:48:27.750Z,998.50
2017-12-08T00:49:27.713Z,998.49
2017-12-08T00:50:27.694Z,998.50
2017-12-08T00:51:27.735Z,998.45
2017-12-08T00:52:27.659Z,998.44
2017-12-08T00:53:27.634Z,998.42
2017-12-08T00:54:27.611Z,998.41
2017-12-08T00:55:27.587Z,998.39
2017-12-08T00:56:27.571Z,998.40
2017-12-08T00:57:27.550Z,998.44
2017-12-08T00:58:27.528Z,998.41
2017-12-08T00:59:27.506Z,998.45
2017-12-08T01:00:27.484Z,998.47
2017-12-08T01:01:27.465Z,998.50
2017-12-08T01:02:27.446Z,998.46
2017-12-08T01:03:27.441Z,998.45
2017-12-08T01:04:27.405Z,998.45
2017-12-08T01:05:27.382Z,998.48
2017-12-08T01:06:27.362Z,998.53
2017-12-08T01:07:27.344Z,998.49
2017-12-08T01:08:27.321Z,998.52
2017-12-08T01:09:27.310Z,998.58
2017-12-08T01:10:27.280Z,998.61
2017-12-08T01:11:27.260Z,998.59
2017-12-08T01:12:27.238Z,998.63
2017-12-08T01:13:27.218Z,998.58
2017-12-08T01:14:27.200Z,998.63
2017-12-08T01:15:27.179Z,998.59
2017-12-08T01:16:27.158Z,998.58
2017-12-08T01:17:27.141Z,998.59
2017-12-08T01:18:27.119Z,998.61
2017-12-08T01:19:27.091Z,998.67
2017-12-08T01:20:27.080Z,998.67
2017-12-08T01:21:27.059Z,998.65
2017-12-08T01:22:27.027Z,998.65
2017-12-08T01:23:27.009Z,998.57
2017-12-08T01:24:26.991Z,998.68
2017-12-08T01:25:26.967Z,998.63
2017-12-08T01:26:26.949Z,998.64
2017-12-08T01:27:26.930Z,998.67
2017-12-08T01:28:26.966Z,998.68
2017-12-08T01:29:26.891Z,998.64
2017-12-08T01:30:26.869Z,998.73
2017-12-08T01:31:26.844Z,998.73
2017-12-08T01:32:26.820Z,998.72
2017-12-08T01:33:26.800Z,998.75
2017-12-08T01:34:26.781Z,998.76
2017-12-08T01:35:26.758Z,998.75
2017-12-08T01:36:26.738Z,998.79
2017-12-08T01:37:26.714Z,998.82
2017-12-08T01:38:26.697Z,998.80
2017-12-08T01:39:26.679Z,998.78
2017-12-08T01:40:26.655Z,998.80
2017-12-08T01:41:26.629Z,998.82
2017-12-08T01:42:26.612Z,998.81
2017-12-08T01:43:26.590Z,998.85
2017-12-08T01:44:26.603Z,998.85
2017-12-08T01:45:26.550Z,998.85
2017-12-08T01:46:26.523Z,998.84
2017-12-08T01:47:26.511Z,998.80
2017-12-08T01:48:26.497Z,998.81
2017-12-08T01:49:26.469Z,998.86
2017-12-08T01:50:26.447Z,998.86
2017-12-08T01:51:26.421Z,998.88
2017-12-08T01:52:26.403Z,998.92
2017-12-08T01:53:26.392Z,998.89
2017-12-08T01:54:26.356Z,998.91
2017-12-08T01:55:26.342Z,998.91
2017-12-08T01:56:26.323Z,998.90
2017-12-08T01:57:26.294Z,998.96
2017-12-08T01:58:26.282Z,998.98
2017-12-08T01:59:26.262Z,998.98
2017-12-08T02:00:26.238Z,998.96
2017-12-08T02:01:26.212Z,998.94
2017-12-08T02:02:26.197Z,998.90
2017-12-08T02:03:26.174Z,998.92
2017-12-08T02:04:26.144Z,998.97
2017-12-08T02:05:26.123Z,998.94
2017-12-08T02:06:26.102Z,998.94
2017-12-08T02:07:26.080Z,998.94
2017-12-08T02:08:26.064Z,998.99
2017-12-08T02:09:26.043Z,998.98
2017-12-08T02:10:26.019Z,998.98
2017-12-08T02:11:26.000Z,998.96
2017-12-08T02:12:25.980Z,999.00
2017-12-08T02:13:25.958Z,998.95
2017-12-08T02:14:25.940Z,998.96
2017-12-08T02:15:25.919Z,998.93
2017-12-08T02:16:25.903Z,998.96
2017-12-08T02:17:25.872Z,998.94
2017-12-08T02:18:25.853Z,998.92
2017-12-08T02:19:25.830Z,998.91
2017-12-08T02:20:25.813Z,998.95
2017-12-08T02:21:25.791Z,998.92
2017-12-08T02:22:25.768Z,998.92
2017-12-08T02:23:25.747Z,998.91
2017-12-08T02:24:25.731Z,998.92
2017-12-08T02:25:25.705Z,998.93
2017-12-08T02:26:25.681Z,998.99
2017-12-08T02:27:25.662Z,998.98
2017-12-08T02:28:25.640Z,999.06
2017-12-08T02:29:25.621Z,999.02
2017-12-08T02:30:25.601Z,999.01
2017-12-08T02:31:25.577Z,999.02
2017-12-08T02:32:25.561Z,999.06
2017-12-08T02:33:25.530Z,999.06
2017-12-08T02:34:25.511Z,999.06
2017-12-08T02:35:25.496Z,999.01
2017-12-08T02:36:25.471Z,999.04
2017-12-08T02:37:25.450Z,999.00
2017-12-08T02:38:25.431Z,999.06
2017-12-08T02:39:25.411Z,998.98
2017-12-08T02:40:25.381Z,999.04
2017-12-08T02:41:25.361Z,999.11
2017-12-08T02:42:25.338Z,999.10
2017-12-08T02:43:25.319Z,999.03
2017-12-08T02:44:25.296Z,999.03
2017-12-08T02:45:25.281Z,998.96
2017-12-08T02:46:25.262Z,998.98
2017-12-08T02:47:25.235Z,998.98
2017-12-08T02:48:25.212Z,998.92
2017-12-08T02:49:25.189Z,998.93
2017-12-08T02:50:25.167Z,998.95
2017-12-08T02:51:25.148Z,998.91
2017-12-08T02:52:25.132Z,998.95
2017-12-08T02:53:25.106Z,999.03
2017-12-08T02:54:25.082Z,998.99
2017-12-08T02:55:25.061Z,999.03
2017-12-08T02:56:25.038Z,999.06
2017-12-08T02:57:25.021Z,999.08
2017-12-08T02:58:24.992Z,999.09
2017-12-08T02:59:24.980Z,999.05
2017-12-08T03:00:24.954Z,999.07
2017-12-08T03:01:24.933Z,999.07
2017-12-08T03:02:24.910Z,999.01
2017-12-08T03:03:24.890Z,999.05
2017-12-08T03:04:24.866Z,999.07
2017-12-08T03:05:24.850Z,999.01
2017-12-08T03:06:24.821Z,999.03
2017-12-08T03:07:24.810Z,998.98
2017-12-08T03:08:24.779Z,999.04
2017-12-08T03:09:24.761Z,999.01
2017-12-08T03:10:24.740Z,999.00
2017-12-08T03:11:24.717Z,999.01
2017-12-08T03:12:24.692Z,998.99
2017-12-08T03:13:24.672Z,999.01
2017-12-08T03:14:24.650Z,998.93
2017-12-08T03:15:24.632Z,998.93
2017-12-08T03:16:24.605Z,998.87
2017-12-08T03:17:24.584Z,998.84
2017-12-08T03:18:24.564Z,998.83
2017-12-08T03:19:24.541Z,998.84
2017-12-08T03:20:24.521Z,998.81
2017-12-08T03:21:24.501Z,998.86
2017-12-08T03:22:24.481Z,998.81
2017-12-08T03:23:24.459Z,998.90
2017-12-08T03:24:24.444Z,998.91
2017-12-08T03:25:24.412Z,998.93
2017-12-08T03:26:24.390Z,998.96
2017-12-08T03:27:24.369Z,998.94
2017-12-08T03:28:24.348Z,998.94
2017-12-08T03:29:24.324Z,998.91
2017-12-08T03:30:24.311Z,999.01
2017-12-08T03:31:24.294Z,998.93
2017-12-08T03:32:24.271Z,998.97
2017-12-08T03:33:24.249Z,998.95
2017-12-08T03:34:24.219Z,998.99
2017-12-08T03:35:24.195Z,999.00
2017-12-08T03:36:24.178Z,998.97
2017-12-08T03:37:24.155Z,998.97
2017-12-08T03:38:24.132Z,998.99
2017-12-08T03:39:24.110Z,998.95
2017-12-08T03:40:24.092Z,998.98
2017-12-08T03:41:24.072Z,998.97
2017-12-08T03:42:24.048Z,998.99
2017-12-08T03:43:24.024Z,998.94
2017-12-08T03:44:24.012Z,998.93
2017-12-08T03:45:23.984Z,998.92
2017-12-08T03:46:23.962Z,999.00
2017-12-08T03:47:23.943Z,998.99
2017-12-08T03:48:23.918Z,998.97
2017-12-08T03:49:23.897Z,999.01
2017-12-08T03:50:23.876Z,999.04
2017-12-08T03:51:23.862Z,999.00
2017-12-08T03:52:23.833Z,998.96
2017-12-08T03:53:23.814Z,998.97
2017-12-08T03:54:23.789Z,999.01
2017-12-08T03:55:23.770Z,998.98
2017-12-08T03:56:23.750Z,998.99
2017-12-08T03:57:23.732Z,999.05
2017-12-08T03:58:23.703Z,998.97
2017-12-08T03:59:23.681Z,999.03
2017-12-08T04:00:23.660Z,998.89
2017-12-08T04:01:23.640Z,998.87
2017-12-08T04:02:23.619Z,998.88
2017-12-08T04:03:23.600Z,998.90
2017-12-08T04:04:23.581Z,998.94
2017-12-08T04:05:23.560Z,998.89
2017-12-08T04:06:23.536Z,998.89
2017-12-08T04:07:23.510Z,998.83
2017-12-08T04:08:23.490Z,998.85
2017-12-08T04:09:23.471Z,998.88
2017-12-08T04:10:23.502Z,998.88
2017-12-08T04:11:23.426Z,998.81
2017-12-08T04:12:23.456Z,998.81
2017-12-08T04:13:23.380Z,998.83
2017-12-08T04:14:23.462Z,998.84
2017-12-08T04:15:23.342Z,998.81
2017-12-08T04:16:23.321Z,998.79
2017-12-08T04:17:23.294Z,998.86
2017-12-08T04:18:23.277Z,998.84
2017-12-08T04:19:23.249Z,998.83
2017-12-08T04:20:23.330Z,998.78
2017-12-08T04:21:23.210Z,998.85
2017-12-08T04:22:23.291Z,998.82
2017-12-08T04:23:23.168Z,998.80
2017-12-08T04:24:23.140Z,998.77
2017-12-08T04:25:23.173Z,998.83
2017-12-08T04:26:23.099Z,998.80
2017-12-08T04:27:23.073Z,998.84
2017-12-08T04:28:23.054Z,998.89
2017-12-08T04:29:23.039Z,998.89
2017-12-08T04:30:23.080Z,998.90
2017-12-08T04:31:22.990Z,998.87
2017-12-08T04:32:22.972Z,998.83
2017-12-08T04:33:22.952Z,998.80
2017-12-08T04:34:22.929Z,998.80
2017-12-08T04:35:22.910Z,998.78
2017-12-08T04:36:22.887Z,998.89
2017-12-08T04:37:22.863Z,998.82
2017-12-08T04:38:22.840Z,998.80
2017-12-08T04:39:22.818Z,998.86
2017-12-08T04:40:22.795Z,998.84
2017-12-08T04:41:22.771Z,998.86
2017-12-08T04:42:22.855Z,998.90
2017-12-08T04:43:22.728Z,998.82
2017-12-08T04:44:22.709Z,998.81
2017-12-08T04:45:22.745Z,998.82
2017-12-08T04:46:22.664Z,998.83
2017-12-08T04:47:22.639Z,998.80
2017-12-08T04:48:22.624Z,998.81
2017-12-08T04:49:22.600Z,998.79
2017-12-08T04:50:22.579Z,998.84
2017-12-08T04:51:22.559Z,998.82
2017-12-08T04:52:22.541Z,998.85
2017-12-08T04:53:22.508Z,998.81
2017-12-08T04:54:22.500Z,998.88
2017-12-08T04:55:22.469Z,998.83
2017-12-08T04:56:22.443Z,998.81
2017-12-08T04:57:22.429Z,998.85
2017-12-08T04:58:22.403Z,998.85
2017-12-08T04:59:22.381Z,998.83
2017-12-08T05:00:22.361Z,998.83
2017-12-08T05:01:22.337Z,998.87
2017-12-08T05:02:22.317Z,998.87
2017-12-08T05:03:22.292Z,998.86
2017-12-08T05:04:22.278Z,998.89
2017-12-08T05:05:22.248Z,998.87
2017-12-08T05:06:22.229Z,998.91
2017-12-08T05:07:22.209Z,998.97
2017-12-08T05:08:22.188Z,998.92
2017-12-08T05:09:22.168Z,998.88
2017-12-08T05:10:22.139Z,998.90
2017-12-08T05:11:22.119Z,998.95
2017-12-08T05:12:22.103Z,998.94
2017-12-08T05:13:22.078Z,998.94
2017-12-08T05:14:22.061Z,998.93
2017-12-08T05:15:22.027Z,998.96
2017-12-08T05:16:22.008Z,998.94
2017-12-08T05:17:21.986Z,998.93
2017-12-08T05:18:21.969Z,998.98
2017-12-08T05:19:21.949Z,999.01
2017-12-08T05:20:21.920Z,999.00
2017-12-08T05:21:21.899Z,999.00
2017-12-08T05:22:21.876Z,999.02
2017-12-08T05:23:21.860Z,999.08
2017-12-08T05:24:21.840Z,999.07
2017-12-08T05:25:21.809Z,999.10
2017-12-08T05:26:21.789Z,999.12
2017-12-08T05:27:21.766Z,999.09
2017-12-08T05:28:21.747Z,999.13
2017-12-08T05:29:21.729Z,999.14
2017-12-08T05:30:21.699Z,999.07
2017-12-08T05:31:21.680Z,999.11
2017-12-08T05:32:21.662Z,999.24
2017-12-08T05:33:21.641Z,999.04
2017-12-08T05:34:21.615Z,999.07
2017-12-08T05:35:21.591Z,999.00
2017-12-08T05:36:21.577Z,999.08
2017-12-08T05:37:21.551Z,999.04
2017-12-08T05:38:21.527Z,998.96
2017-12-08T05:39:21.556Z,998.96
2017-12-08T05:40:21.484Z,999.07
2017-12-08T05:41:21.462Z,999.02
2017-12-08T05:42:21.444Z,998.96
2017-12-08T05:43:21.420Z,999.00
2017-12-08T05:44:21.401Z,999.04
2017-12-08T05:45:21.369Z,998.98
2017-12-08T05:46:21.353Z,999.01
2017-12-08T05:47:21.328Z,998.99
2017-12-08T05:48:21.303Z,999.03
2017-12-08T05:49:21.290Z,999.05
2017-12-08T05:50:21.259Z,999.10
2017-12-08T05:51:21.243Z,999.07
2017-12-08T05:52:21.220Z,999.08
2017-12-08T05:53:21.194Z,999.02
2017-12-08T05:54:21.169Z,999.01
2017-12-08T05:55:21.148Z,999.01
2017-12-08T05:56:21.129Z,999.01
2017-12-08T05:57:21.110Z,999.04
2017-12-08T05:58:21.088Z,999.05
2017-12-08T05:59:21.072Z,999.04
2017-12-08T06:00:21.043Z,999.03
2017-12-08T06:01:21.015Z,999.03
2017-12-08T06:02:20.994Z,999.06
2017-12-08T06:03:20.970Z,999.00
2017-12-08T06:04:20.951Z,999.00
2017-12-08T06:05:20.929Z,998.98
2017-12-08T06:06:20.910Z,999.02
2017-12-08T06:07:20.883Z,999.02
2017-12-08T06:08:20.861Z,998.99
2017-12-08T06:09:20.839Z,999.00
2017-12-08T06:10:20.814Z,999.05
2017-12-08T06:11:20.799Z,999.02
2017-12-08T06:12:20.768Z,999.03
2017-12-08T06:13:20.747Z,999.00
2017-12-08T06:14:20.728Z,998.97
2017-12-08T06:15:20.706Z,999.01
2017-12-08T06:16:20.683Z,998.97
2017-12-08T06:17:20.659Z,998.96
2017-12-08T06:18:20.640Z,999.02
2017-12-08T06:19:20.622Z,998.88
2017-12-08T06:20:20.600Z,998.94
2017-12-08T06:21:20.574Z,998.97
2017-12-08T06:22:20.549Z,999.05
2017-12-08T06:23:20.530Z,999.03
2017-12-08T06:24:20.508Z,999.08
2017-12-08T06:25:20.487Z,999.05
2017-12-08T06:26:20.459Z,999.09
2017-12-08T06:27:20.450Z,999.07
2017-12-08T06:28:20.416Z,999.13
2017-12-08T06:29:20.400Z,999.17
2017-12-08T06:30:20.370Z,999.14
2017-12-08T06:31:20.351Z,999.11
2017-12-08T06:32:20.329Z,999.23
2017-12-08T06:33:20.308Z,999.13
2017-12-08T06:34:20.290Z,999.18
2017-12-08T06:35:20.264Z,999.16
2017-12-08T06:36:20.233Z,999.16
2017-12-08T06:37:20.222Z,999.12
2017-12-08T06:38:20.191Z,999.09
2017-12-08T06:39:20.171Z,999.11
2017-12-08T06:40:20.143Z,999.08
2017-12-08T06:41:20.128Z,999.12
2017-12-08T06:42:20.099Z,999.11
2017-12-08T06:43:20.076Z,999.16
2017-12-08T06:44:20.062Z,999.00
2017-12-08T06:45:20.033Z,999.04
2017-12-08T06:46:20.007Z,999.10
2017-12-08T06:47:20.037Z,999.03
2017-12-08T06:48:19.963Z,999.06
2017-12-08T06:49:19.949Z,999.06
2017-12-08T06:50:19.917Z,999.07
2017-12-08T06:51:19.998Z,999.03
2017-12-08T06:52:19.879Z,999.08
2017-12-08T06:53:19.950Z,999.02
2017-12-08T06:54:19.828Z,999.11
2017-12-08T06:55:19.911Z,999.09
2017-12-08T06:56:19.783Z,999.05
2017-12-08T06:57:19.911Z,999.10
2017-12-08T06:58:19.740Z,999.03
2017-12-08T06:59:19.765Z,999.08
2017-12-08T07:00:19.693Z,999.09
2017-12-08T07:01:19.672Z,999.00
2017-12-08T07:02:19.649Z,999.05
2017-12-08T07:03:19.626Z,999.01
2017-12-08T07:04:19.600Z,999.03
2017-12-08T07:05:19.580Z,999.06
2017-12-08T07:06:19.554Z,999.00
2017-12-08T07:07:19.682Z,999.08
2017-12-08T07:08:19.511Z,999.09
2017-12-08T07:09:19.546Z,999.07
2017-12-08T07:10:19.469Z,999.06
2017-12-08T07:11:19.445Z,999.08
2017-12-08T07:12:19.417Z,999.17
2017-12-08T07:13:19.491Z,999.16
2017-12-08T07:14:19.371Z,999.15
2017-12-08T07:15:19.356Z,999.18
2017-12-08T07:16:19.327Z,999.17
2017-12-08T07:17:19.311Z,999.14
2017-12-08T07:18:19.301Z,999.15
2017-12-08T07:19:19.264Z,999.15
2017-12-08T07:20:19.241Z,999.16
2017-12-08T07:21:19.223Z,999.20
2017-12-08T07:22:19.191Z,999.21
2017-12-08T07:23:19.279Z,999.19
2017-12-08T07:24:19.145Z,999.24
2017-12-08T07:25:19.140Z,999.20
2017-12-08T07:26:19.102Z,999.19
2017-12-08T07:27:19.081Z,999.15
2017-12-08T07:28:19.064Z,999.17
2017-12-08T07:29:19.044Z,999.23
2017-12-08T07:30:19.025Z,999.18
2017-12-08T07:31:18.988Z,999.23
2017-12-08T07:32:18.964Z,999.22
2017-12-08T07:33:18.942Z,999.19
2017-12-08T07:34:18.931Z,999.22
2017-12-08T07:35:18.892Z,999.16
2017-12-08T07:36:18.877Z,999.20
2017-12-08T07:37:18.849Z,999.18
2017-12-08T07:38:18.830Z,999.17
2017-12-08T07:39:18.806Z,999.14
2017-12-08T07:40:18.783Z,999.21
2017-12-08T07:41:18.760Z,999.25
2017-12-08T07:42:18.740Z,999.30
2017-12-08T07:43:18.713Z,999.29
2017-12-08T07:44:18.694Z,999.33
2017-12-08T07:45:18.672Z,999.35
2017-12-08T07:46:18.648Z,999.30
2017-12-08T07:47:18.627Z,999.27
2017-12-08T07:48:18.604Z,999.35
2017-12-08T07:49:18.580Z,999.40
2017-12-08T07:50:18.554Z,999.44
2017-12-08T07:51:18.530Z,999.37
2017-12-08T07:52:18.510Z,999.38
2017-12-08T07:53:18.488Z,999.34
2017-12-08T07:54:18.464Z,999.34
2017-12-08T07:55:18.446Z,999.37
2017-12-08T07:56:18.420Z,999.40
2017-12-08T07:57:18.399Z,999.33
2017-12-08T07:58:18.379Z,999.34
2017-12-08T07:59:18.354Z,999.32
2017-12-08T08:00:18.329Z,999.31
2017-12-08T08:01:18.317Z,999.29
2017-12-08T08:02:18.290Z,999.30
2017-12-08T08:03:18.273Z,999.33
2017-12-08T08:04:18.285Z,999.33
2017-12-08T08:05:18.220Z,999.40
2017-12-08T08:06:18.201Z,999.33
2017-12-08T08:07:18.180Z,999.27
2017-12-08T08:08:18.156Z,999.34
2017-12-08T08:09:18.132Z,999.34
2017-12-08T08:10:18.109Z,999.29
2017-12-08T08:11:18.097Z,999.32
2017-12-08T08:12:18.072Z,999.38
2017-12-08T08:13:18.044Z,999.31
2017-12-08T08:14:18.030Z,999.32
2017-12-08T08:15:18.000Z,999.30
2017-12-08T08:16:17.982Z,999.26
2017-12-08T08:17:17.960Z,999.28
2017-12-08T08:18:17.930Z,999.26
2017-12-08T08:19:17.917Z,999.41
2017-12-08T08:20:17.892Z,999.31
2017-12-08T08:21:17.912Z,999.31
2017-12-08T08:22:17.849Z,999.34
2017-12-08T08:23:17.827Z,999.42
2017-12-08T08:24:17.799Z,999.38
2017-12-08T08:25:17.781Z,999.39
2017-12-08T08:26:17.758Z,999.43
2017-12-08T08:27:17.734Z,999.49
2017-12-08T08:28:17.719Z,999.54
2017-12-08T08:29:17.691Z,999.63
2017-12-08T08:30:17.667Z,999.68
2017-12-08T08:31:17.657Z,999.65
2017-12-08T08:32:17.631Z,999.68
2017-12-08T08:33:17.618Z,999.78
2017-12-08T08:34:17.582Z,999.72
2017-12-08T08:35:17.562Z,999.68
2017-12-08T08:36:17.547Z,999.91
2017-12-08T08:37:17.525Z,999.84
2017-12-08T08:38:17.505Z,999.86
2017-12-08T08:39:17.490Z,999.81
2017-12-08T08:40:17.469Z,999.59
2017-12-08T08:41:17.448Z,999.64
2017-12-08T08:42:17.426Z,999.66
2017-12-08T08:43:17.411Z,999.52
2017-12-08T08:44:17.389Z,999.58
2017-12-08T08:45:17.372Z,999.59
2017-12-08T08:46:17.349Z,999.57
2017-12-08T08:47:17.331Z,999.46
2017-12-08T08:48:17.312Z,999.53
2017-12-08T08:49:17.289Z,999.52
2017-12-08T08:50:17.265Z,999.54
2017-12-08T08:51:17.302Z,999.60
2017-12-08T08:52:17.227Z,999.55
2017-12-08T08:53:17.213Z,999.56
2017-12-08T08:54:17.182Z,999.62
2017-12-08T08:55:17.163Z,999.48
2017-12-08T08:56:17.145Z,999.48
2017-12-08T08:57:17.120Z,999.52
2017-12-08T08:58:17.102Z,999.39
2017-12-08T08:59:17.081Z,999.40
2017-12-08T09:00:17.059Z,999.47
2017-12-08T09:01:17.038Z,999.46
2017-12-08T09:02:17.046Z,999.42
2017-12-08T09:03:17.030Z,999.54
2017-12-08T09:04:16.984Z,999.53
2017-12-08T09:05:16.953Z,999.50
2017-12-08T09:06:16.930Z,999.53
2017-12-08T09:07:16.911Z,999.55
2017-12-08T09:08:16.893Z,999.47
2017-12-08T09:09:16.871Z,999.53
2017-12-08T09:10:16.851Z,999.47
2017-12-08T09:11:16.829Z,999.53
2017-12-08T09:12:16.801Z,999.44
2017-12-08T09:13:16.778Z,999.47
2017-12-08T09:14:16.757Z,999.45
2017-12-08T09:15:16.735Z,999.49
2017-12-08T09:16:16.712Z,999.48
2017-12-08T09:17:16.697Z,999.47
2017-12-08T09:18:16.723Z,999.50
2017-12-08T09:19:16.652Z,999.45
2017-12-08T09:20:16.622Z,999.49
2017-12-08T09:21:16.602Z,999.52
2017-12-08T09:22:16.628Z,999.51
2017-12-08T09:23:16.566Z,999.52
2017-12-08T09:24:16.534Z,999.51
2017-12-08T09:25:16.510Z,999.51
2017-12-08T09:26:16.506Z,999.48
2017-12-08T09:27:16.480Z,999.43
2017-12-08T09:28:16.545Z,999.53
2017-12-08T09:29:16.420Z,999.46
2017-12-08T09:30:16.398Z,999.42
2017-12-08T09:31:16.377Z,999.42
2017-12-08T09:32:16.411Z,999.45
2017-12-08T09:33:16.338Z,999.55
2017-12-08T09:34:16.403Z,999.51
2017-12-08T09:35:16.286Z,999.43
2017-12-08T09:36:16.271Z,999.37
2017-12-08T09:37:16.247Z,999.42
2017-12-08T09:38:16.247Z,999.27
2017-12-08T09:39:16.203Z,999.31
2017-12-08T09:40:16.231Z,999.35
2017-12-08T09:41:16.154Z,999.30
2017-12-08T09:42:16.132Z,999.37
2017-12-08T09:43:16.110Z,999.31
2017-12-08T09:44:16.141Z,999.44
2017-12-08T09:45:16.061Z,999.40
2017-12-08T09:46:16.192Z,999.41
2017-12-08T09:47:16.028Z,999.35
2017-12-08T09:48:16.054Z,999.21
2017-12-08T09:49:15.974Z,999.34
2017-12-08T09:50:15.950Z,999.36
2017-12-08T09:51:15.930Z,999.36
2017-12-08T09:52:15.908Z,999.42
2017-12-08T09:53:15.890Z,999.37
2017-12-08T09:54:15.860Z,999.30
2017-12-08T09:55:15.838Z,999.35
2017-12-08T09:56:15.817Z,999.46
2017-12-08T09:57:15.790Z,999.31
2017-12-08T09:58:15.772Z,999.30
2017-12-08T09:59:15.752Z,999.36
2017-12-08T10:00:15.731Z,999.34
2017-12-08T10:01:15.703Z,999.38
2017-12-08T10:02:15.679Z,999.23
2017-12-08T10:03:15.655Z,999.33
2017-12-08T10:04:15.636Z,999.43
2017-12-08T10:05:15.608Z,999.27
2017-12-08T10:06:15.595Z,999.24
2017-12-08T10:07:15.573Z,999.31
2017-12-08T10:08:15.554Z,999.39
2017-12-08T10:09:15.529Z,999.18
2017-12-08T10:10:15.502Z,999.27
2017-12-08T10:11:15.474Z,999.25
2017-12-08T10:12:15.451Z,999.22
2017-12-08T10:13:15.425Z,999.15
2017-12-08T10:14:15.412Z,999.20
2017-12-08T10:15:15.382Z,999.18
2017-12-08T10:16:15.364Z,999.14
2017-12-08T10:17:15.342Z,999.07
2017-12-08T10:18:15.320Z,999.24
2017-12-08T10:19:15.300Z,999.18
2017-12-08T10:20:15.267Z,999.07
2017-12-08T10:21:15.250Z,999.15
2017-12-08T10:22:15.219Z,999.25
2017-12-08T10:23:15.205Z,999.11
2017-12-08T10:24:15.180Z,999.10
2017-12-08T10:25:15.155Z,999.09
2017-12-08T10:26:15.128Z,999.15
2017-12-08T10:27:15.105Z,999.14
2017-12-08T10:28:15.099Z,999.14
2017-12-08T10:29:15.060Z,999.13
2017-12-08T10:30:15.039Z,999.12
2017-12-08T10:31:15.016Z,999.14
2017-12-08T10:32:14.991Z,999.12
2017-12-08T10:33:14.975Z,999.12
2017-12-08T10:34:14.946Z,999.11
2017-12-08T10:35:14.929Z,999.06
2017-12-08T10:36:14.906Z,999.06
2017-12-08T10:37:14.877Z,999.03
2017-12-08T10:38:14.852Z,999.02
2017-12-08T10:39:14.834Z,999.02
2017-12-08T10:40:14.817Z,999.03
2017-12-08T10:41:14.799Z,999.08
2017-12-08T10:42:14.772Z,998.99
2017-12-08T10:43:14.739Z,998.94
2017-12-08T10:44:14.747Z,998.98
2017-12-08T10:45:14.695Z,998.98
2017-12-08T10:46:14.676Z,998.99
2017-12-08T10:47:14.650Z,999.01
2017-12-08T10:48:14.623Z,998.98
2017-12-08T10:49:14.603Z,998.99
2017-12-08T10:50:14.578Z,999.01
2017-12-08T10:51:14.557Z,999.01
2017-12-08T10:52:14.532Z,998.99
2017-12-08T10:53:14.518Z,999.04
2017-12-08T10:54:14.493Z,998.93
2017-12-08T10:55:14.465Z,999.01
2017-12-08T10:56:14.442Z,998.95
2017-12-08T10:57:14.422Z,998.89
2017-12-08T10:58:14.401Z,998.80
2017-12-08T10:59:14.377Z,998.87
2017-12-08T11:00:14.352Z,998.76
2017-12-08T11:01:14.329Z,998.86
2017-12-08T11:02:14.313Z,998.78
2017-12-08T11:03:14.285Z,998.81
2017-12-08T11:04:14.263Z,998.81
2017-12-08T11:05:14.241Z,998.81
2017-12-08T11:06:14.220Z,998.78
2017-12-08T11:07:14.192Z,998.79
2017-12-08T11:08:14.170Z,998.73
2017-12-08T11:09:14.148Z,998.78
2017-12-08T11:10:14.121Z,998.79
2017-12-08T11:11:14.099Z,998.79
2017-12-08T11:12:14.080Z,998.75
2017-12-08T11:13:14.062Z,998.76
2017-12-08T11:14:14.030Z,998.69
2017-12-08T11:15:14.010Z,998.76
2017-12-08T11:16:13.988Z,998.69
2017-12-08T11:17:13.960Z,998.72
2017-12-08T11:18:13.944Z,998.72
2017-12-08T11:19:13.919Z,998.71
2017-12-08T11:20:13.902Z,998.68
2017-12-08T11:21:13.873Z,998.69
2017-12-08T11:22:13.951Z,998.67
2017-12-08T11:23:13.830Z,998.70
2017-12-08T11:24:13.807Z,998.67
2017-12-08T11:25:13.781Z,998.77
2017-12-08T11:26:13.760Z,998.74
2017-12-08T11:27:13.738Z,998.75
2017-12-08T11:28:13.717Z,998.68
2017-12-08T11:29:13.688Z,998.76
2017-12-08T11:30:13.680Z,998.69
2017-12-08T11:31:13.648Z,998.66
2017-12-08T11:32:13.620Z,998.68
2017-12-08T11:33:13.599Z,998.77
2017-12-08T11:34:13.581Z,998.77
2017-12-08T11:35:13.552Z,998.80
2017-12-08T11:36:13.532Z,998.75
2017-12-08T11:37:13.514Z,998.81
2017-12-08T11:38:13.490Z,998.77
2017-12-08T11:39:13.471Z,998.81
2017-12-08T11:40:13.446Z,998.81
2017-12-08T11:41:13.420Z,998.86
2017-12-08T11:42:13.392Z,998.86
2017-12-08T11:43:13.372Z,998.98
2017-12-08T11:44:13.350Z,998.80
2017-12-08T11:45:13.331Z,998.83
2017-12-08T11:46:13.321Z,998.84
2017-12-08T11:47:13.332Z,998.92
2017-12-08T11:48:13.262Z,998.88
2017-12-08T11:49:13.259Z,998.86
2017-12-08T11:50:13.222Z,998.87
2017-12-08T11:51:13.247Z,998.94
2017-12-08T11:52:13.178Z,998.95
2017-12-08T11:53:13.251Z,998.96
2017-12-08T11:54:13.126Z,998.96
2017-12-08T11:55:13.112Z,999.00
2017-12-08T11:56:13.094Z,999.00
2017-12-08T11:57:13.166Z,998.99
2017-12-08T11:58:13.044Z,998.95
2017-12-08T11:59:13.042Z,998.99
2017-12-08T12:00:12.996Z,999.02
2017-12-08T12:01:13.036Z,999.02
2017-12-08T12:02:12.947Z,998.99
2017-12-08T12:03:13.084Z,998.93
2017-12-08T12:04:12.968Z,998.96
2017-12-08T12:05:12.913Z,998.96
2017-12-08T12:06:12.857Z,998.97
2017-12-08T12:07:12.843Z,998.98
2017-12-08T12:08:12.827Z,998.98
2017-12-08T12:09:12.951Z,999.05
2017-12-08T12:10:12.770Z,998.98
2017-12-08T12:11:12.760Z,999.06
2017-12-08T12:12:12.729Z,999.03
2017-12-08T12:13:12.711Z,999.05
2017-12-08T12:14:12.691Z,999.10
2017-12-08T12:15:12.672Z,999.08
2017-12-08T12:16:12.644Z,999.05
2017-12-08T12:17:12.623Z,999.12
2017-12-08T12:18:12.595Z,999.13
2017-12-08T12:19:12.578Z,999.14
2017-12-08T12:20:12.562Z,999.12
2017-12-08T12:21:12.532Z,999.16
2017-12-08T12:22:12.506Z,999.20
2017-12-08T12:23:12.486Z,999.18
2017-12-08T12:24:12.462Z,999.17
2017-12-08T12:25:12.447Z,999.21
2017-12-08T12:26:12.423Z,999.24
2017-12-08T12:27:12.407Z,999.33
2017-12-08T12:28:12.374Z,999.33